JBU2941 KFLL-KEYW
Flight info
| Callsign | JBU2941 |
|---|---|
| Flight time | N/A |
| Altitude | 18000 |
| Route | MAYNR3 MAYNR FNTSY FNTSY1 |
| Aircraft | A321/M-SDE3FGHIRWY/LB1 |
Departure
| Time | N/A |
|---|---|
| Airport | Fort Lauderdale Hollywood International Airport (KFLL) |
Arrival
| Time | 2026-05-03 20:29 |
|---|---|
| Airport | Key West International Airport (KEYW) |
| Time | Latitude | Longitude | Altitude | Speed | Heading |
|---|---|---|---|---|---|
| 2026-05-03 20:15 | 24.78958 | -80.84469 | 14155 ft | 351 kts | 262° |
| 2026-05-03 20:15 | 24.78655 | -80.87125 | 13634 ft | 349 kts | 262° |
| 2026-05-03 20:15 | 24.78351 | -80.89764 | 13072 ft | 346 kts | 262° |
| 2026-05-03 20:15 | 24.78050 | -80.92376 | 12522 ft | 343 kts | 262° |
| 2026-05-03 20:16 | 24.77751 | -80.94971 | 11980 ft | 340 kts | 262° |
| 2026-05-03 20:16 | 24.77460 | -80.97509 | 11458 ft | 338 kts | 262° |
| 2026-05-03 20:16 | 24.77156 | -81.00057 | 10931 ft | 335 kts | 259° |
| 2026-05-03 20:16 | 24.76521 | -81.02511 | 10415 ft | 330 kts | 248° |
| 2026-05-03 20:17 | 24.75479 | -81.04650 | 10074 ft | 304 kts | 239° |
| 2026-05-03 20:17 | 24.74404 | -81.06533 | 9998 ft | 281 kts | 239° |
| 2026-05-03 20:17 | 24.73381 | -81.08357 | 10002 ft | 282 kts | 239° |
| 2026-05-03 20:17 | 24.72367 | -81.10186 | 9999 ft | 279 kts | 239° |
| 2026-05-03 20:18 | 24.71354 | -81.12014 | 9773 ft | 279 kts | 239° |
| 2026-05-03 20:18 | 24.70360 | -81.13801 | 9471 ft | 276 kts | 239° |
| 2026-05-03 20:18 | 24.69360 | -81.15596 | 9168 ft | 274 kts | 239° |
| 2026-05-03 20:18 | 24.68363 | -81.17379 | 8866 ft | 273 kts | 239° |
| 2026-05-03 20:19 | 24.67370 | -81.19151 | 8571 ft | 272 kts | 239° |
| 2026-05-03 20:19 | 24.66380 | -81.20916 | 8275 ft | 270 kts | 239° |
| 2026-05-03 20:19 | 24.65396 | -81.22668 | 8042 ft | 268 kts | 239° |
| 2026-05-03 20:19 | 24.64325 | -81.24349 | 7994 ft | 270 kts | 230° |
| 2026-05-03 20:20 | 24.63094 | -81.25906 | 8005 ft | 270 kts | 230° |
| 2026-05-03 20:20 | 24.61863 | -81.27472 | 8002 ft | 270 kts | 230° |
| 2026-05-03 20:20 | 24.60639 | -81.29029 | 7592 ft | 275 kts | 230° |
| 2026-05-03 20:20 | 24.59409 | -81.30598 | 7002 ft | 267 kts | 230° |
| 2026-05-03 20:21 | 24.58207 | -81.32135 | 6418 ft | 263 kts | 230° |
| 2026-05-03 20:21 | 24.57047 | -81.33675 | 5789 ft | 261 kts | 236° |
| 2026-05-03 20:21 | 24.56245 | -81.35442 | 5195 ft | 258 kts | 252° |
| 2026-05-03 20:21 | 24.55928 | -81.37361 | 4540 ft | 257 kts | 267° |
| 2026-05-03 20:22 | 24.55920 | -81.39328 | 3849 ft | 256 kts | 268° |
| 2026-05-03 20:22 | 24.55910 | -81.41287 | 3235 ft | 259 kts | 269° |
| 2026-05-03 20:22 | 24.55896 | -81.43241 | 3037 ft | 252 kts | 269° |
| 2026-05-03 20:22 | 24.55881 | -81.45110 | 2999 ft | 236 kts | 269° |
| 2026-05-03 20:23 | 24.55868 | -81.46869 | 3015 ft | 227 kts | 269° |
| 2026-05-03 20:23 | 24.55856 | -81.48540 | 3000 ft | 210 kts | 269° |
| 2026-05-03 20:23 | 24.55843 | -81.50090 | 2998 ft | 203 kts | 268° |
| 2026-05-03 20:23 | 24.55831 | -81.51625 | 3015 ft | 200 kts | 269° |
| 2026-05-03 20:24 | 24.55817 | -81.53159 | 3019 ft | 200 kts | 268° |
| 2026-05-03 20:24 | 24.55804 | -81.54683 | 3008 ft | 201 kts | 269° |
| 2026-05-03 20:24 | 24.55792 | -81.56220 | 3001 ft | 202 kts | 269° |
| 2026-05-03 20:24 | 24.55780 | -81.57760 | 2797 ft | 199 kts | 269° |
| 2026-05-03 20:25 | 24.55767 | -81.59245 | 2581 ft | 190 kts | 269° |
| 2026-05-03 20:25 | 24.55754 | -81.60677 | 2373 ft | 185 kts | 269° |
| 2026-05-03 20:25 | 24.55742 | -81.62040 | 2177 ft | 176 kts | 270° |
| 2026-05-03 20:25 | 24.55729 | -81.63343 | 1995 ft | 165 kts | 270° |
| 2026-05-03 20:26 | 24.55717 | -81.64550 | 1855 ft | 149 kts | 270° |
| 2026-05-03 20:26 | 24.55707 | -81.65671 | 1696 ft | 145 kts | 270° |
| 2026-05-03 20:26 | 24.55696 | -81.66770 | 1530 ft | 142 kts | 270° |
| 2026-05-03 20:26 | 24.55687 | -81.67854 | 1347 ft | 142 kts | 270° |
| 2026-05-03 20:27 | 24.55677 | -81.68932 | 1155 ft | 141 kts | 270° |
| 2026-05-03 20:27 | 24.55668 | -81.70009 | 987 ft | 140 kts | 272° |
| 2026-05-03 20:27 | 24.55650 | -81.71086 | 787 ft | 141 kts | 275° |
| 2026-05-03 20:27 | 24.55636 | -81.72185 | 587 ft | 146 kts | 276° |
| 2026-05-03 20:28 | 24.55635 | -81.73297 | 389 ft | 148 kts | 274° |
| 2026-05-03 20:28 | 24.55623 | -81.74435 | 195 ft | 149 kts | 273° |
| 2026-05-03 20:28 | 24.55615 | -81.75549 | 21 ft | 143 kts | 275° |
| 2026-05-03 20:28 | 24.55615 | -81.76401 | 10 ft | 63 kts | 270° |
| 2026-05-03 20:29 | 24.55570 | -81.76642 | 12 ft | 21 kts | 200° |
| 2026-05-03 20:29 | 24.55522 | -81.76598 | 12 ft | 9 kts | 100° |
| 2026-05-03 20:29 | 24.55521 | -81.76518 | 12 ft | 12 kts | 89° |
| 2026-05-03 20:29 | 24.55522 | -81.76423 | 12 ft | 13 kts | 89° |
| 2026-05-03 20:30 | 24.55522 | -81.76316 | 12 ft | 15 kts | 89° |
| 2026-05-03 20:30 | 24.55524 | -81.76194 | 12 ft | 17 kts | 89° |
| 2026-05-03 20:30 | 24.55525 | -81.76060 | 12 ft | 18 kts | 89° |
| 2026-05-03 20:30 | 24.55526 | -81.75915 | 12 ft | 20 kts | 89° |
| 2026-05-03 20:31 | 24.55528 | -81.75761 | 12 ft | 21 kts | 89° |
| 2026-05-03 20:31 | 24.55530 | -81.75611 | 13 ft | 17 kts | 89° |
| 2026-05-03 20:31 | 24.55499 | -81.75518 | 12 ft | 13 kts | 148° |
| 2026-05-03 20:31 | 24.55451 | -81.75502 | 12 ft | 1 kts | 176° |
| 2026-05-03 20:32 | 24.55446 | -81.75502 | 12 ft | 1 kts | 177° |
| 2026-05-03 20:32 | 24.55441 | -81.75502 | 12 ft | 0 kts | 178° |
| 2026-05-03 20:32 | 24.55440 | -81.75501 | 12 ft | 0 kts | 178° |